Current Conditions
Mostly Clear
Conditions



Pressure
1012.92 (hPa) - 29.91 (inHG)
Visibility

10.0 (km) - 6.2 (miles)
Temperature
33  °C
Temperature
20  °C
Dewpoint
46  %
 Humidity
Wind Speed
10  km/h
5  kts
6  mph
2.7  m/s
Wind Direction
N
45°
E
90°
135°
S
180°
225°
W
270°
315°
 240°

West South
West
Airport Data
LTBA
İstanbul Atatürk Airport
Metar :LTBA 291050Z 24005KT 190V330 CAVOK 33/20 Q1013 BECMG 03012KT RMK RWY23 14007KT 100V170
Thu 29th July 13:50 pm
Raw Metar Info
Raw METAR is the most common format in the world for the transmission of observational weather data. It is highly standardized through the International Civil Aviation Organization (ICAO), which allows it to be understood throughout most of the world.
API Info
Data Provided by
https://www.checkwx.com/weather/LTBA

Aviation Weather providing METAR, TAF, AIRMET, SIGMET and OUTLOOK Weather Reports
© Info
CSS/SVG/PHP scripts were developed by weather34.com for use in the weather34 template © 2015-2021

Guide Info provided by Metar-Wikipedia